Time;durP1;ratioP1;P1;durP2;ratioP2;P2;SDS_P1;SDS_P2;PMS_P1;PMS_P2;Temp;Humidity;BMP_temperature;BMP_pressure;BME280_temperature;BME280_humidity;BME280_pressure;Samples;Min_cycle;Max_cycle;Signal;HPM_P1;HPM_P2
2022/03/31 00:02:04;;;;;;;17.20;7.15;;;11.30;99.90;;;;;;4981773;28;20030;-89
2022/03/31 00:04:45;;;;;;;15.35;6.85;;;11.40;99.90;;;;;;4985207;28;20512;-89
2022/03/31 00:07:11;;;;;;;22.60;7.35;;;11.30;99.90;;;;;;4990451;28;20053;-89
2022/03/31 00:09:42;;;;;;;23.25;7.15;;;11.30;99.90;;;;;;4990247;28;20548;-88
2022/03/31 00:15:37;;;;;;;23.45;7.50;;;11.20;99.90;;;;;;4956542;28;20034;-90
2022/03/31 00:18:22;;;;;;;20.90;7.15;;;11.20;99.90;;;;;;4938280;28;20487;-89
2022/03/31 00:20:51;;;;;;;20.50;7.80;;;11.30;99.90;;;;;;4981511;28;20047;-89
2022/03/31 00:23:29;;;;;;;20.40;7.70;;;11.30;99.90;;;;;;4983316;28;20034;-89
2022/03/31 00:26:17;;;;;;;22.15;6.93;;;11.40;99.90;;;;;;4993488;28;20026;-90
2022/03/31 00:28:52;;;;;;;18.83;6.82;;;11.50;99.90;;;;;;4988129;28;20030;-87
2022/03/31 00:32:12;;;;;;;17.58;6.75;;;11.50;99.90;;;;;;4992572;28;20054;-88
2022/03/31 00:34:55;;;;;;;19.17;6.78;;;11.50;99.90;;;;;;4983727;28;20050;-89
2022/03/31 00:37:27;;;;;;;17.88;6.28;;;11.40;99.90;;;;;;5002669;28;20034;-88
2022/03/31 00:39:53;;;;;;;;;;;11.40;99.90;;;;;;4993585;28;20034;-88
2022/03/31 00:45:23;;;;;;;15.90;7.00;;;11.50;99.90;;;;;;4991409;28;20449;-87
2022/03/31 00:48:32;;;;;;;24.27;6.80;;;11.50;99.90;;;;;;4989961;28;20033;-88
2022/03/31 00:51:21;;;;;;;14.85;6.40;;;11.40;99.90;;;;;;4993142;28;20105;-87
2022/03/31 01:00:41;;;;;;;17.88;7.22;;;11.40;99.90;;;;;;4950052;28;20071;-90
2022/03/31 01:03:38;;;;;;;19.42;6.82;;;11.40;99.90;;;;;;4934625;29;20035;-91
2022/03/31 01:06:07;;;;;;;15.55;6.75;;;11.40;99.90;;;;;;4961396;28;20042;-89
2022/03/31 01:08:36;;;;;;;24.45;7.68;;;11.40;99.90;;;;;;4977240;28;20037;-89
2022/03/31 01:11:02;;;;;;;27.00;7.63;;;11.30;99.90;;;;;;5019119;28;20021;-91
2022/03/31 01:13:33;;;;;;;21.13;8.30;;;11.30;99.90;;;;;;4997428;28;20403;-90
2022/03/31 01:15:59;;;;;;;25.60;7.75;;;11.30;99.90;;;;;;5014629;28;20052;-90
2022/03/31 01:18:25;;;;;;;15.70;7.40;;;11.30;99.90;;;;;;4996411;28;20033;-90
2022/03/31 01:20:52;;;;;;;21.85;8.75;;;11.30;99.90;;;;;;5014483;28;20026;-91
2022/03/31 01:23:18;;;;;;;18.63;8.30;;;11.20;99.90;;;;;;5014390;28;20028;-91
2022/03/31 01:25:44;;;;;;;32.75;9.23;;;11.20;99.90;;;;;;4996010;28;20026;-91
2022/03/31 01:28:10;;;;;;;17.58;7.05;;;11.20;99.90;;;;;;4986399;28;20026;-91
2022/03/31 01:30:36;;;;;;;23.13;8.32;;;11.20;99.90;;;;;;4996804;28;20914;-91
2022/03/31 01:33:02;;;;;;;17.98;7.72;;;11.10;99.90;;;;;;5006911;28;20065;-90
2022/03/31 01:35:34;;;;;;;14.93;8.15;;;11.20;99.90;;;;;;4995849;28;20029;-90
2022/03/31 01:38:22;;;;;;;19.63;7.47;;;11.20;99.90;;;;;;5014374;28;20041;-91
2022/03/31 01:40:48;;;;;;;18.33;8.07;;;11.20;99.90;;;;;;5010655;28;20105;-90
2022/03/31 01:43:21;;;;;;;17.67;7.47;;;11.20;99.90;;;;;;5013803;28;20026;-91
2022/03/31 01:46:39;;;;;;;19.00;7.53;;;11.20;99.90;;;;;;5013820;28;20018;-90
2022/03/31 01:49:13;;;;;;;19.70;6.85;;;11.20;99.90;;;;;;4974328;28;20030;-91
2022/03/31 01:52:03;;;;;;;18.35;8.43;;;11.20;99.90;;;;;;5009908;28;20029;-90
2022/03/31 01:54:54;;;;;;;18.92;8.80;;;11.20;99.90;;;;;;4995952;28;20392;-90
2022/03/31 01:57:29;;;;;;;19.90;8.85;;;11.20;99.90;;;;;;5006324;28;20120;-89
2022/03/31 01:59:55;;;;;;;23.73;8.32;;;11.20;99.90;;;;;;5012887;28;20029;-89
2022/03/31 02:02:22;;;;;;;20.45;8.90;;;11.10;99.90;;;;;;4996171;28;20664;-88
2022/03/31 02:04:48;;;;;;;23.23;9.38;;;11.10;99.90;;;;;;4994299;28;20416;-89
2022/03/31 02:07:14;;;;;;;17.48;8.57;;;11.10;99.90;;;;;;5012681;28;20056;-89
2022/03/31 02:09:41;;;;;;;18.15;8.95;;;11.20;99.90;;;;;;4995034;28;20026;-89
2022/03/31 02:12:11;;;;;;;22.88;9.65;;;11.20;99.90;;;;;;4991059;28;20046;-88
2022/03/31 02:14:37;;;;;;;18.70;9.43;;;11.20;99.90;;;;;;4991860;28;20030;-87
2022/03/31 02:17:11;;;;;;;18.65;8.70;;;11.20;99.90;;;;;;5012683;28;20092;-88
2022/03/31 02:19:40;;;;;;;21.27;9.85;;;11.20;99.90;;;;;;4988772;28;20481;-88
2022/03/31 02:22:14;;;;;;;17.63;8.88;;;11.20;99.90;;;;;;5011821;28;20061;-89
2022/03/31 02:24:54;;;;;;;14.32;7.93;;;11.10;99.90;;;;;;4994507;28;20045;-88
2022/03/31 02:31:03;;;;;;;15.88;7.90;;;11.00;99.90;;;;;;4968510;28;20115;-87
2022/03/31 02:37:21;;;;;;;11.57;6.93;;;11.10;99.90;;;;;;4905460;28;20034;-87
2022/03/31 02:39:54;;;;;;;15.88;7.32;;;11.10;99.90;;;;;;4987175;28;20026;-87
2022/03/31 02:42:20;;;;;;;13.93;6.25;;;11.10;99.90;;;;;;4994091;28;20026;-90
2022/03/31 02:44:52;;;;;;;13.10;6.72;;;11.10;99.90;;;;;;4994729;28;20025;-90
2022/03/31 02:47:18;;;;;;;15.55;7.03;;;11.10;99.90;;;;;;4995095;28;20060;-90
2022/03/31 02:49:47;;;;;;;15.23;6.07;;;11.10;99.90;;;;;;4995214;28;20062;-90
2022/03/31 02:52:16;;;;;;;13.35;5.80;;;11.10;99.90;;;;;;5011755;28;20022;-91
2022/03/31 02:57:56;;;;;;;15.45;6.00;;;11.10;99.90;;;;;;5013181;28;20084;-92
2022/03/31 03:00:56;;;;;;;;;;;;;;;;;;;;;
2022/03/31 03:03:32;;;;;;;15.27;6.78;;;11.10;99.90;;;;;;5003195;28;20392;-87
2022/03/31 03:06:03;;;;;;;20.02;5.97;;;11.10;99.90;;;;;;4994256;28;20034;-87
2022/03/31 03:08:50;;;;;;;14.13;6.13;;;11.10;99.90;;;;;;4989011;28;20025;-87
2022/03/31 03:12:01;;;;;;;15.82;5.90;;;11.10;99.90;;;;;;5011661;28;20037;-86
2022/03/31 03:14:27;;;;;;;20.38;6.10;;;11.10;99.90;;;;;;4969924;28;20516;-89
2022/03/31 03:17:01;;;;;;;20.92;6.45;;;11.10;99.90;;;;;;5003337;28;20038;-89
2022/03/31 03:19:30;;;;;;;14.95;5.80;;;11.10;99.90;;;;;;4990624;28;20030;-89
2022/03/31 03:21:56;;;;;;;16.00;6.45;;;11.20;99.90;;;;;;5012209;28;20025;-90
2022/03/31 03:24:25;;;;;;;14.65;5.90;;;11.10;99.90;;;;;;5011959;28;20209;-90
2022/03/31 03:27:04;;;;;;;;;;;;;;;;;;;;;
2022/03/31 03:29:33;;;;;;;10.30;5.50;;;11.20;99.90;;;;;;5011283;28;20028;-92
2022/03/31 03:32:41;;;;;;;17.30;5.18;;;11.20;99.90;;;;;;4995764;28;20433;-91
2022/03/31 03:46:10;;;;;;;13.68;4.63;;;11.20;99.90;;;;;;4830227;29;20578;-90
2022/03/31 03:56:06;;;;;;;8.98;3.90;;;11.20;99.90;;;;;;4797443;29;20076;-89
2022/03/31 03:58:53;;;;;;;9.73;3.95;;;11.20;99.90;;;;;;4795647;29;20077;-88
2022/03/31 04:04:58;;;;;;;7.63;3.10;;;11.20;99.90;;;;;;4802960;29;20080;-89
2022/03/31 04:07:31;;;;;;;5.55;2.72;;;11.20;99.90;;;;;;4864081;29;20160;-90
2022/03/31 04:10:03;;;;;;;4.85;2.15;;;11.20;99.90;;;;;;4960613;28;20505;-89
2022/03/31 04:12:36;;;;;;;4.35;2.40;;;11.10;99.90;;;;;;4994310;28;20617;-89
2022/03/31 04:15:14;;;;;;;7.20;2.00;;;11.10;99.90;;;;;;4987394;28;20509;-88
2022/03/31 04:17:40;;;;;;;5.95;2.28;;;11.10;99.90;;;;;;4994524;28;20080;-90
2022/03/31 04:20:07;;;;;;;3.42;2.08;;;11.10;99.90;;;;;;4994246;28;20038;-89
2022/03/31 04:22:37;;;;;;;5.20;2.20;;;11.10;99.90;;;;;;4993812;28;20011;-88
2022/03/31 04:25:07;;;;;;;4.32;1.92;;;11.10;99.90;;;;;;4983226;28;20030;-87
2022/03/31 04:27:40;;;;;;;5.88;2.22;;;11.10;99.90;;;;;;4981897;28;20027;-88
2022/03/31 04:30:09;;;;;;;2.83;1.75;;;11.10;99.90;;;;;;4974181;28;20030;-88
2022/03/31 04:32:46;;;;;;;2.92;1.42;;;11.10;99.90;;;;;;4993895;28;20501;-88
2022/03/31 04:35:15;;;;;;;4.93;2.20;;;11.10;99.90;;;;;;4992117;28;20018;-88
2022/03/31 04:37:44;;;;;;;2.45;1.58;;;11.10;99.90;;;;;;4980576;28;20046;-88
2022/03/31 04:40:10;;;;;;;1.67;1.58;;;11.10;99.90;;;;;;4977900;28;20106;-89
2022/03/31 04:42:46;;;;;;;3.15;1.73;;;11.10;99.90;;;;;;4977628;28;20053;-89
2022/03/31 04:45:12;;;;;;;5.55;1.83;;;11.20;99.90;;;;;;4994986;28;20121;-87
2022/03/31 04:47:41;;;;;;;3.90;1.48;;;11.10;99.90;;;;;;4995410;28;20056;-89
2022/03/31 04:50:10;;;;;;;1.75;1.50;;;11.10;99.90;;;;;;4993926;28;20023;-89
2022/03/31 04:52:45;;;;;;;2.50;1.60;;;11.10;99.90;;;;;;4995101;28;20027;-88
2022/03/31 04:55:11;;;;;;;5.13;1.52;;;11.00;99.90;;;;;;4993449;28;20030;-88
2022/03/31 04:57:36;;;;;;;2.20;1.50;;;11.00;99.90;;;;;;4975289;28;20041;-88
2022/03/31 05:00:16;;;;;;;2.75;1.50;;;11.00;99.90;;;;;;4996362;28;20042;-88
2022/03/31 05:03:21;;;;;;;3.05;1.50;;;11.00;99.90;;;;;;4997170;28;20034;-89
2022/03/31 05:05:42;;;;;;;2.40;1.48;;;11.00;99.90;;;;;;5007551;28;20030;-88
2022/03/31 05:08:12;;;;;;;6.47;1.60;;;11.00;99.90;;;;;;4996270;28;20033;-89
2022/03/31 05:11:19;;;;;;;6.72;1.58;;;11.00;99.90;;;;;;5014494;28;20037;-89
2022/03/31 05:13:48;;;;;;;1.38;1.23;;;11.00;99.90;;;;;;5006943;28;20050;-88
2022/03/31 05:16:14;;;;;;;5.18;1.60;;;11.00;99.90;;;;;;4987140;28;20022;-88
2022/03/31 05:18:40;;;;;;;2.72;1.55;;;11.00;99.90;;;;;;5013630;28;20036;-89
2022/03/31 05:21:05;;;;;;;3.28;1.38;;;11.00;99.90;;;;;;4996178;28;20023;-88
2022/03/31 05:23:31;;;;;;;3.55;1.50;;;11.00;99.90;;;;;;5014147;28;20033;-88
2022/03/31 05:25:57;;;;;;;3.55;1.20;;;11.00;99.90;;;;;;4999031;28;20022;-88
2022/03/31 05:28:47;;;;;;;5.47;1.33;;;11.00;99.90;;;;;;4995550;28;20088;-88
2022/03/31 05:31:16;;;;;;;2.53;1.30;;;11.00;99.90;;;;;;4993361;28;20034;-88
2022/03/31 05:33:41;;;;;;;6.82;1.30;;;11.00;99.90;;;;;;5013337;28;20124;-88
2022/03/31 05:36:07;;;;;;;3.13;1.60;;;11.10;99.90;;;;;;5012412;28;20049;-87
2022/03/31 05:38:33;;;;;;;4.28;1.70;;;11.10;99.90;;;;;;5001988;28;20499;-88
2022/03/31 05:41:01;;;;;;;2.78;1.55;;;11.10;99.90;;;;;;5007562;28;20037;-91
2022/03/31 05:43:30;;;;;;;3.50;1.90;;;11.20;99.90;;;;;;4998574;28;20018;-88
2022/03/31 05:45:56;;;;;;;2.90;1.73;;;11.20;99.90;;;;;;4998350;28;20041;-86
2022/03/31 05:48:22;;;;;;;3.40;1.67;;;11.20;99.90;;;;;;4996505;28;20030;-86
2022/03/31 05:50:48;;;;;;;4.38;1.73;;;11.20;99.90;;;;;;5013633;28;20034;-85
2022/03/31 05:53:15;;;;;;;3.80;1.85;;;11.20;99.90;;;;;;5012974;28;20038;-86
2022/03/31 05:55:43;;;;;;;3.30;1.63;;;11.30;99.90;;;;;;5017335;28;20033;-88
2022/03/31 05:58:09;;;;;;;3.53;1.95;;;11.30;99.90;;;;;;5013075;28;20033;-88
2022/03/31 06:00:39;;;;;;;4.95;1.80;;;11.30;99.90;;;;;;4997770;28;20060;-86
2022/03/31 06:03:23;;;;;;;3.45;1.67;;;11.30;99.90;;;;;;5014426;28;20104;-89
2022/03/31 06:05:50;;;;;;;4.88;1.58;;;11.30;99.90;;;;;;4997099;28;20033;-86
2022/03/31 06:08:19;;;;;;;3.67;1.92;;;11.30;99.90;;;;;;4991810;28;20098;-91
2022/03/31 06:10:58;;;;;;;3.35;1.60;;;11.30;99.90;;;;;;5001492;28;20022;-90
2022/03/31 06:13:26;;;;;;;2.65;1.50;;;11.40;99.90;;;;;;4999753;28;20120;-89
2022/03/31 06:15:52;;;;;;;3.47;1.65;;;11.40;99.90;;;;;;4996685;28;20032;-87
2022/03/31 06:18:18;;;;;;;4.13;1.70;;;11.40;99.90;;;;;;4998778;28;20029;-90
2022/03/31 06:20:45;;;;;;;3.65;1.80;;;11.50;99.90;;;;;;5004841;28;20033;-88
2022/03/31 06:23:11;;;;;;;5.78;1.90;;;11.50;99.90;;;;;;4999191;28;20588;-90
2022/03/31 06:25:41;;;;;;;3.42;1.65;;;11.50;99.90;;;;;;5017466;28;20038;-89
2022/03/31 06:28:09;;;;;;;5.72;1.70;;;11.50;99.90;;;;;;5015679;28;20038;-89
2022/03/31 06:30:35;;;;;;;2.97;1.20;;;11.50;99.90;;;;;;4994850;28;20079;-90
2022/03/31 06:33:02;;;;;;;3.33;1.50;;;11.50;99.90;;;;;;4997656;28;20402;-89
2022/03/31 06:35:28;;;;;;;3.42;1.42;;;11.50;99.90;;;;;;4999851;28;20026;-89
2022/03/31 06:37:54;;;;;;;2.53;1.48;;;11.50;99.90;;;;;;5014649;28;20037;-90
2022/03/31 06:40:23;;;;;;;2.20;1.20;;;11.50;99.90;;;;;;5000861;28;20025;-90
2022/03/31 06:42:50;;;;;;;3.25;1.27;;;11.50;99.90;;;;;;5003266;28;20058;-89
2022/03/31 06:45:17;;;;;;;7.15;1.63;;;11.50;99.90;;;;;;4998682;28;20089;-88
2022/03/31 06:47:44;;;;;;;4.50;1.38;;;11.60;99.90;;;;;;5002824;28;20030;-88
2022/03/31 06:50:11;;;;;;;3.78;1.38;;;11.50;99.90;;;;;;5000891;28;20019;-91
2022/03/31 06:52:46;;;;;;;1.52;1.33;;;11.50;99.90;;;;;;4983001;28;20045;-89
2022/03/31 06:55:12;;;;;;;2.80;1.13;;;11.60;99.90;;;;;;5004021;28;20029;-90
2022/03/31 06:57:41;;;;;;;4.63;1.30;;;11.60;99.90;;;;;;5006072;28;20029;-92
2022/03/31 07:00:07;;;;;;;4.45;1.35;;;11.60;99.90;;;;;;4998932;28;20050;-93
2022/03/31 07:02:36;;;;;;;2.17;1.42;;;11.70;99.90;;;;;;5002590;28;20026;-93
2022/03/31 07:05:02;;;;;;;2.35;1.40;;;11.70;99.90;;;;;;5000144;28;20026;-90
2022/03/31 07:07:29;;;;;;;2.45;1.00;;;11.60;99.90;;;;;;4996519;28;20061;-92
2022/03/31 07:09:56;;;;;;;1.50;0.93;;;11.60;99.90;;;;;;4973640;28;20031;-89
2022/03/31 07:12:22;;;;;;;2.50;0.93;;;11.60;99.90;;;;;;5001855;28;20030;-92
2022/03/31 07:14:47;;;;;;;3.78;1.52;;;11.50;99.90;;;;;;5002176;28;20030;-92
2022/03/31 07:17:13;;;;;;;4.18;1.08;;;11.50;99.90;;;;;;4999740;28;20022;-92
2022/03/31 07:19:39;;;;;;;1.23;0.90;;;11.50;99.90;;;;;;5004270;28;20030;-90
2022/03/31 07:22:05;;;;;;;3.40;1.27;;;11.50;99.90;;;;;;4997598;28;20081;-92
2022/03/31 07:24:31;;;;;;;2.47;1.10;;;11.50;99.90;;;;;;4992744;28;20031;-87
2022/03/31 07:26:57;;;;;;;2.42;1.13;;;11.50;99.90;;;;;;4994447;28;20077;-90
2022/03/31 07:29:23;;;;;;;2.28;1.00;;;11.50;99.90;;;;;;4995485;28;20047;-91
2022/03/31 07:31:49;;;;;;;3.47;1.35;;;11.50;99.90;;;;;;4993156;28;20038;-90
2022/03/31 07:34:15;;;;;;;3.63;1.60;;;11.50;99.90;;;;;;4985468;28;20042;-90
2022/03/31 07:36:41;;;;;;;4.32;1.58;;;11.50;99.90;;;;;;4994957;28;20078;-90
2022/03/31 07:39:08;;;;;;;2.67;1.38;;;11.50;99.90;;;;;;4992412;28;20038;-89
2022/03/31 07:41:34;;;;;;;2.72;1.17;;;11.50;99.90;;;;;;4992253;28;20108;-88
2022/03/31 07:44:03;;;;;;;5.93;1.70;;;11.50;99.90;;;;;;4994624;28;20072;-91
2022/03/31 07:46:32;;;;;;;3.28;1.70;;;11.50;99.90;;;;;;4994015;28;20168;-90
2022/03/31 07:48:59;;;;;;;6.03;2.13;;;11.50;99.90;;;;;;4997891;28;20090;-90
2022/03/31 07:51:26;;;;;;;6.93;1.95;;;11.50;99.90;;;;;;4996863;28;20023;-90
2022/03/31 07:53:52;;;;;;;3.03;1.33;;;11.50;99.90;;;;;;4980240;28;20042;-89
2022/03/31 07:56:18;;;;;;;2.15;1.08;;;11.40;99.90;;;;;;5000154;28;20022;-89
2022/03/31 07:58:46;;;;;;;2.25;1.30;;;11.40;99.90;;;;;;4996254;28;20596;-89
2022/03/31 08:01:13;;;;;;;2.00;1.20;;;11.40;99.90;;;;;;4983165;28;20098;-88
2022/03/31 08:03:39;;;;;;;1.38;1.08;;;11.40;99.90;;;;;;4996711;28;20089;-88
2022/03/31 08:06:06;;;;;;;1.08;0.98;;;11.30;99.90;;;;;;4997616;28;20054;-90
2022/03/31 08:08:32;;;;;;;3.90;1.30;;;11.40;99.90;;;;;;4991620;28;20038;-88
2022/03/31 08:10:59;;;;;;;1.73;0.95;;;11.30;99.90;;;;;;4992927;28;20030;-89
2022/03/31 08:13:27;;;;;;;3.35;1.00;;;11.30;99.90;;;;;;4993451;28;20038;-89
2022/03/31 08:15:55;;;;;;;3.47;0.80;;;11.40;99.90;;;;;;4996309;28;20033;-89
2022/03/31 08:18:33;;;;;;;1.38;0.80;;;11.40;99.90;;;;;;4984975;28;20027;-90
2022/03/31 08:21:00;;;;;;;1.08;0.82;;;11.40;99.90;;;;;;5000787;28;20037;-90
2022/03/31 08:23:26;;;;;;;2.35;0.95;;;11.40;99.90;;;;;;4994141;28;20493;-89
2022/03/31 08:25:53;;;;;;;3.22;1.00;;;11.30;99.90;;;;;;4998884;28;20057;-90
2022/03/31 08:28:20;;;;;;;2.35;0.95;;;11.30;99.90;;;;;;4996339;28;20520;-90
2022/03/31 08:30:47;;;;;;;2.97;1.13;;;11.30;99.90;;;;;;4996996;28;20023;-90
2022/03/31 08:33:12;;;;;;;3.33;1.63;;;11.30;99.90;;;;;;4998758;28;20034;-90
2022/03/31 08:35:38;;;;;;;6.10;2.50;;;11.30;99.90;;;;;;4994460;28;20100;-89
2022/03/31 08:38:04;;;;;;;7.53;1.55;;;11.20;99.90;;;;;;5007288;28;20425;-90
2022/03/31 08:40:30;;;;;;;3.28;0.98;;;11.20;99.90;;;;;;5000943;28;20133;-89
2022/03/31 08:42:56;;;;;;;2.30;0.90;;;11.20;99.90;;;;;;5007552;28;20046;-91
2022/03/31 08:45:31;;;;;;;2.85;1.10;;;11.20;99.90;;;;;;4995167;28;20054;-89
2022/03/31 08:47:58;;;;;;;4.00;1.40;;;11.20;99.90;;;;;;4994688;28;20031;-92
2022/03/31 08:50:23;;;;;;;2.47;1.38;;;11.10;99.90;;;;;;4995706;28;20034;-91
2022/03/31 08:52:55;;;;;;;5.10;1.60;;;11.10;99.90;;;;;;4995291;28;20044;-89
2022/03/31 08:55:24;;;;;;;1.40;1.10;;;11.10;99.90;;;;;;4984280;28;20494;-90
2022/03/31 08:57:54;;;;;;;4.65;1.30;;;11.10;99.90;;;;;;4995141;28;20440;-89
2022/03/31 09:00:22;;;;;;;1.95;0.80;;;10.90;99.90;;;;;;4988226;28;20521;-90
2022/03/31 09:03:17;;;;;;;3.38;0.98;;;10.80;99.90;;;;;;4987019;28;20053;-89
2022/03/31 09:05:46;;;;;;;2.25;1.50;;;10.70;99.90;;;;;;5009101;28;20029;-89
2022/03/31 09:08:13;;;;;;;5.50;2.80;;;10.80;99.90;;;;;;4999899;28;20161;-90
2022/03/31 09:10:49;;;;;;;2.95;2.38;;;10.90;99.90;;;;;;5009313;28;20033;-89
2022/03/31 09:13:25;;;;;;;6.13;4.85;;;10.90;99.90;;;;;;4987337;28;20061;-91
2022/03/31 09:15:56;;;;;;;4.18;2.80;;;11.00;99.90;;;;;;5016409;28;20396;-91
2022/03/31 09:18:24;;;;;;;2.15;1.45;;;11.00;99.90;;;;;;5020279;28;20062;-90
2022/03/31 09:20:57;;;;;;;1.45;1.05;;;11.10;99.90;;;;;;5009321;28;20041;-90
2022/03/31 09:23:41;;;;;;;2.60;1.38;;;11.20;99.90;;;;;;4988468;28;20022;-91
2022/03/31 09:26:16;;;;;;;1.90;1.10;;;11.30;99.90;;;;;;4991310;28;20026;-91
2022/03/31 09:28:46;;;;;;;2.22;1.77;;;11.50;99.90;;;;;;5002727;28;20086;-88
2022/03/31 09:31:13;;;;;;;2.25;1.00;;;11.70;99.90;;;;;;4991866;28;20029;-89
2022/03/31 09:33:59;;;;;;;1.20;1.10;;;12.00;99.90;;;;;;5004027;28;20042;-90
2022/03/31 09:36:26;;;;;;;2.58;1.50;;;12.20;99.90;;;;;;5022323;28;20033;-90
2022/03/31 09:39:12;;;;;;;3.65;0.70;;;12.40;99.90;;;;;;5005237;28;20427;-88
2022/03/31 09:41:41;;;;;;;2.08;1.10;;;12.30;99.90;;;;;;4971813;28;20027;-90
2022/03/31 09:44:15;;;;;;;1.60;1.00;;;12.10;99.90;;;;;;4985147;28;20037;-88
2022/03/31 09:46:42;;;;;;;3.00;1.40;;;12.00;99.90;;;;;;5002261;28;20018;-90
2022/03/31 09:49:17;;;;;;;1.85;1.20;;;12.00;99.90;;;;;;4998133;28;20034;-88
2022/03/31 09:51:45;;;;;;;1.05;0.63;;;11.90;99.90;;;;;;5003394;28;20026;-90
2022/03/31 09:54:12;;;;;;;2.05;0.85;;;11.90;99.90;;;;;;5015612;28;20032;-89
2022/03/31 09:56:45;;;;;;;2.28;1.20;;;11.90;99.90;;;;;;5013800;28;20477;-89
2022/03/31 09:59:13;;;;;;;1.98;1.55;;;12.00;99.90;;;;;;5001116;28;20045;-89
2022/03/31 10:01:40;;;;;;;2.38;1.30;;;12.00;99.90;;;;;;4997047;28;20026;-89
2022/03/31 10:04:07;;;;;;;1.75;0.95;;;12.10;99.90;;;;;;4981440;28;20037;-91
2022/03/31 10:06:38;;;;;;;1.90;0.90;;;12.30;99.90;;;;;;4998136;28;20033;-88
2022/03/31 10:09:10;;;;;;;1.92;0.70;;;12.50;99.90;;;;;;4995561;28;20117;-88
2022/03/31 10:11:41;;;;;;;1.58;0.75;;;12.50;99.90;;;;;;4996945;28;20022;-90
2022/03/31 10:14:22;;;;;;;1.80;0.93;;;12.50;99.90;;;;;;4995332;28;20035;-89
2022/03/31 10:16:59;;;;;;;1.27;0.77;;;12.60;99.90;;;;;;4994632;28;20060;-90
2022/03/31 10:19:41;;;;;;;1.00;0.75;;;12.60;99.90;;;;;;4995621;28;20022;-89
2022/03/31 10:25:05;;;;;;;1.20;0.70;;;12.60;99.90;;;;;;4989557;28;20080;-90
2022/03/31 10:27:34;;;;;;;0.80;0.60;;;12.60;99.90;;;;;;5002119;28;20022;-89
2022/03/31 10:30:31;;;;;;;1.65;0.60;;;12.70;99.90;;;;;;4996144;28;20061;-93
2022/03/31 10:33:05;;;;;;;0.95;0.60;;;12.70;99.90;;;;;;4994537;28;20073;-89
2022/03/31 10:35:34;;;;;;;1.00;0.80;;;12.80;99.90;;;;;;5000288;28;20076;-89
2022/03/31 10:38:12;;;;;;;1.35;0.70;;;12.80;99.90;;;;;;5000290;28;20393;-89
2022/03/31 10:40:44;;;;;;;2.47;0.75;;;12.80;99.90;;;;;;5011597;28;20508;-89
2022/03/31 10:43:31;;;;;;;0.68;0.68;;;12.80;99.90;;;;;;4998421;28;20050;-90
2022/03/31 10:46:00;;;;;;;1.38;0.75;;;12.80;99.90;;;;;;4996612;28;20084;-89
2022/03/31 10:48:28;;;;;;;1.80;0.70;;;13.00;99.90;;;;;;4995016;28;20473;-90
2022/03/31 10:51:08;;;;;;;1.70;0.90;;;13.50;99.90;;;;;;4993447;28;20034;-89
2022/03/31 10:53:40;;;;;;;1.52;0.60;;;14.00;99.90;;;;;;4995507;28;20125;-89
2022/03/31 10:56:28;;;;;;;2.33;0.65;;;14.30;99.90;;;;;;5002326;28;20015;-90
2022/03/31 10:59:06;;;;;;;1.02;0.88;;;14.00;99.90;;;;;;4987968;28;20073;-89
2022/03/31 11:01:55;;;;;;;1.25;0.52;;;13.70;99.90;;;;;;5020073;28;20505;-89
2022/03/31 11:04:21;;;;;;;0.60;0.60;;;13.40;99.90;;;;;;5015322;28;20026;-90
2022/03/31 11:06:59;;;;;;;8.88;1.60;;;13.30;99.90;;;;;;4999720;28;20674;-88
2022/03/31 11:09:31;;;;;;;1.35;0.57;;;13.20;99.90;;;;;;5016979;28;20072;-89
2022/03/31 11:12:05;;;;;;;0.95;0.70;;;13.10;99.90;;;;;;4998202;28;20123;-90
2022/03/31 11:14:56;;;;;;;0.70;0.60;;;13.10;99.90;;;;;;5008500;28;20129;-88
2022/03/31 11:17:25;;;;;;;0.70;0.60;;;13.10;99.90;;;;;;5003606;28;20026;-89
2022/03/31 11:19:55;;;;;;;1.00;0.77;;;13.30;99.90;;;;;;5000517;28;20045;-90
2022/03/31 11:22:32;;;;;;;0.60;0.60;;;13.60;99.90;;;;;;5023639;28;20002;-89
2022/03/31 11:25:37;;;;;;;3.10;0.63;;;13.80;99.90;;;;;;5024798;28;20055;-89
2022/03/31 11:28:14;;;;;;;0.98;0.50;;;14.10;99.90;;;;;;5005922;28;20030;-88
2022/03/31 11:30:43;;;;;;;0.63;0.63;;;14.20;99.90;;;;;;4995798;28;20038;-90
2022/03/31 11:33:24;;;;;;;3.10;1.30;;;14.20;99.90;;;;;;4994264;28;20064;-89
2022/03/31 11:36:19;;;;;;;;;;;;;;;;;;;;;
2022/03/31 11:38:57;;;;;;;2.08;0.95;;;14.10;99.90;;;;;;5012398;28;20109;-88
2022/03/31 11:41:23;;;;;;;1.88;1.30;;;14.00;99.90;;;;;;5001911;28;20030;-88
2022/03/31 11:43:49;;;;;;;2.72;1.10;;;13.90;99.90;;;;;;5023636;28;20057;-89
2022/03/31 11:46:23;;;;;;;2.90;1.35;;;13.90;99.90;;;;;;5004484;28;20006;-89
2022/03/31 11:48:54;;;;;;;3.85;0.90;;;13.90;99.90;;;;;;5005854;28;20116;-89
2022/03/31 11:51:34;;;;;;;1.50;0.85;;;13.80;99.90;;;;;;4989957;28;20035;-89
2022/03/31 11:54:08;;;;;;;0.68;0.68;;;13.60;99.90;;;;;;5004656;28;20052;-89
2022/03/31 11:56:34;;;;;;;0.73;0.70;;;13.50;99.90;;;;;;5001649;28;20026;-88
2022/03/31 11:59:00;;;;;;;1.88;0.70;;;13.50;99.90;;;;;;5001465;28;20041;-88
2022/03/31 12:01:53;;;;;;;1.75;0.50;;;13.70;99.90;;;;;;5019123;28;20032;-88
2022/03/31 12:04:27;;;;;;;2.33;1.10;;;13.70;99.90;;;;;;4985829;28;20056;-88
2022/03/31 12:09:51;;;;;;;3.25;1.02;;;13.40;99.90;;;;;;5057918;26;20036;-89
2022/03/31 12:12:18;;;;;;;1.77;1.13;;;13.20;99.90;;;;;;5039778;28;20123;-90
2022/03/31 12:14:59;;;;;;;1.98;1.20;;;13.20;99.90;;;;;;5050162;28;20117;-88
2022/03/31 12:17:33;;;;;;;1.50;1.13;;;13.00;99.90;;;;;;5070318;28;20025;-88
2022/03/31 12:20:02;;;;;;;1.10;0.80;;;13.00;99.90;;;;;;5058605;28;20533;-90
2022/03/31 12:22:35;;;;;;;1.10;1.00;;;12.90;99.90;;;;;;5055432;28;20478;-89
2022/03/31 12:25:01;;;;;;;1.10;1.00;;;12.80;99.90;;;;;;5055492;28;20044;-90
2022/03/31 12:27:47;;;;;;;1.40;1.00;;;12.70;99.90;;;;;;5038694;28;20033;-89
2022/03/31 12:30:17;;;;;;;1.65;0.63;;;12.70;99.90;;;;;;5076833;28;20040;-89
2022/03/31 12:32:56;;;;;;;1.23;1.00;;;12.70;99.90;;;;;;5059296;28;20040;-88
2022/03/31 12:35:51;;;;;;;5.45;1.30;;;12.50;99.90;;;;;;5061576;28;20028;-91
2022/03/31 12:38:17;;;;;;;0.80;0.77;;;12.50;99.90;;;;;;5059988;28;20021;-88
2022/03/31 12:40:48;;;;;;;1.63;0.93;;;12.40;99.90;;;;;;5085859;28;20051;-86
2022/03/31 12:43:35;;;;;;;1.30;0.77;;;12.30;99.90;;;;;;5060852;28;20364;-87
2022/03/31 12:46:12;;;;;;;1.23;1.10;;;12.30;99.90;;;;;;5079759;28;20029;-89
2022/03/31 12:49:21;;;;;;;1.85;0.95;;;12.20;99.90;;;;;;5070274;28;20024;-88
2022/03/31 12:52:15;;;;;;;1.80;1.00;;;12.20;99.90;;;;;;5056700;28;20028;-89
2022/03/31 12:54:52;;;;;;;3.03;0.90;;;12.10;99.90;;;;;;5077448;28;20032;-90
2022/03/31 12:57:27;;;;;;;1.58;0.90;;;12.10;99.90;;;;;;5054964;28;20126;-89
2022/03/31 13:00:22;;;;;;;1.63;1.00;;;12.00;99.90;;;;;;5073772;28;20048;-89
2022/03/31 13:02:52;;;;;;;2.17;0.95;;;11.90;99.90;;;;;;5062926;28;20052;-88
2022/03/31 13:05:27;;;;;;;2.10;0.98;;;11.80;99.90;;;;;;5062286;28;20024;-89
2022/03/31 13:07:54;;;;;;;1.33;0.82;;;11.70;99.90;;;;;;5056491;28;20059;-88
2022/03/31 13:10:21;;;;;;;2.17;1.10;;;11.60;99.90;;;;;;5049009;28;20074;-87
2022/03/31 13:12:48;;;;;;;0.50;0.50;;;11.70;99.90;;;;;;5067419;28;20032;-88
2022/03/31 13:15:16;;;;;;;6.35;0.90;;;11.60;99.90;;;;;;5040489;28;20116;-88
2022/03/31 13:17:44;;;;;;;1.27;0.77;;;11.50;99.90;;;;;;5049874;28;20498;-91
2022/03/31 13:20:13;;;;;;;2.47;0.93;;;11.40;99.90;;;;;;5055759;28;20063;-88
2022/03/31 13:22:40;;;;;;;0.70;0.60;;;11.30;99.90;;;;;;5065665;28;20021;-94
2022/03/31 13:25:21;;;;;;;0.93;0.70;;;11.30;99.90;;;;;;5151499;23;20056;-93
2022/03/31 13:27:47;;;;;;;3.42;0.70;;;11.40;99.90;;;;;;5034834;28;20093;-92
2022/03/31 13:30:16;;;;;;;1.05;0.70;;;11.40;99.90;;;;;;5045530;28;20168;-90
2022/03/31 13:32:46;;;;;;;1.00;0.77;;;11.50;99.90;;;;;;5030023;28;20017;-93
2022/03/31 13:35:37;;;;;;;0.88;0.88;;;11.50;99.90;;;;;;5117041;23;20030;-92
2022/03/31 13:46:14;;;;;;;1.48;0.90;;;11.90;99.90;;;;;;5058030;28;20048;-88
2022/03/31 13:48:52;;;;;;;1.38;0.93;;;12.20;99.90;;;;;;5034959;28;20022;-88
2022/03/31 13:51:47;;;;;;;1.58;1.00;;;12.40;99.90;;;;;;5055115;28;20017;-91
2022/03/31 13:54:18;;;;;;;0.80;0.70;;;12.50;99.90;;;;;;5043370;28;20033;-92
2022/03/31 13:56:51;;;;;;;1.70;0.80;;;12.70;99.90;;;;;;5071932;22;20092;-92
2022/03/31 14:02:10;;;;;;;1.38;0.82;;;12.90;99.90;;;;;;5067793;28;20062;-88
2022/03/31 14:04:38;;;;;;;0.88;0.60;;;12.90;99.90;;;;;;5057995;28;20021;-90
2022/03/31 14:07:06;;;;;;;2.50;1.10;;;12.90;99.90;;;;;;5040310;28;20113;-91
2022/03/31 14:09:37;;;;;;;1.92;1.08;;;12.80;99.90;;;;;;5045468;28;20100;-92
2022/03/31 14:12:06;;;;;;;1.30;0.93;;;12.70;99.90;;;;;;5152976;22;20114;-87
2022/03/31 14:14:36;;;;;;;1.38;1.00;;;12.60;99.90;;;;;;5046323;28;20051;-92
2022/03/31 14:17:02;;;;;;;1.10;1.00;;;12.50;99.90;;;;;;5038043;28;20025;-88
2022/03/31 14:19:33;;;;;;;1.52;1.00;;;12.40;99.90;;;;;;5037740;28;20394;-88